sensor_id;sensor_type;location;lat;lon;timestamp;P1;durP1;ratioP1;P2;durP2;ratioP2
76125;SDS011;65174;48.138;21.002;2023-06-26T04:03:20;3.55;;;2.25;;
76125;SDS011;65174;48.138;21.002;2023-06-26T04:06:22;3.05;;;2.58;;
76125;SDS011;65174;48.138;21.002;2023-06-26T04:09:25;3.67;;;2.50;;
76125;SDS011;65174;48.138;21.002;2023-06-26T04:12:27;5.03;;;2.95;;
76125;SDS011;65174;48.138;21.002;2023-06-26T04:15:29;6.33;;;2.70;;
76125;SDS011;65174;48.138;21.002;2023-06-26T04:18:31;3.13;;;2.58;;
76125;SDS011;65174;48.138;21.002;2023-06-26T04:21:33;3.55;;;2.35;;
76125;SDS011;65174;48.138;21.002;2023-06-26T04:24:35;4.93;;;2.72;;
76125;SDS011;65174;48.138;21.002;2023-06-26T04:27:37;3.38;;;2.60;;
76125;SDS011;65174;48.138;21.002;2023-06-26T04:30:42;3.73;;;2.50;;
76125;SDS011;65174;48.138;21.002;2023-06-26T04:33:43;5.18;;;2.72;;
76125;SDS011;65174;48.138;21.002;2023-06-26T04:36:45;8.57;;;3.10;;
76125;SDS011;65174;48.138;21.002;2023-06-26T04:39:49;4.90;;;2.90;;
76125;SDS011;65174;48.138;21.002;2023-06-26T04:42:52;4.25;;;2.85;;
76125;SDS011;65174;48.138;21.002;2023-06-26T04:45:53;4.00;;;2.60;;
76125;SDS011;65174;48.138;21.002;2023-06-26T04:48:55;3.60;;;2.80;;
76125;SDS011;65174;48.138;21.002;2023-06-26T04:51:59;3.80;;;2.95;;
76125;SDS011;65174;48.138;21.002;2023-06-26T04:55:02;4.90;;;2.67;;
76125;SDS011;65174;48.138;21.002;2023-06-26T04:58:04;3.35;;;2.63;;
76125;SDS011;65174;48.138;21.002;2023-06-26T05:01:06;6.67;;;2.70;;
76125;SDS011;65174;48.138;21.002;2023-06-26T05:04:08;5.43;;;2.95;;
76125;SDS011;65174;48.138;21.002;2023-06-26T05:07:10;6.32;;;3.00;;
76125;SDS011;65174;48.138;21.002;2023-06-26T05:10:12;6.20;;;3.00;;
76125;SDS011;65174;48.138;21.002;2023-06-26T05:13:14;5.40;;;2.72;;
76125;SDS011;65174;48.138;21.002;2023-06-26T05:16:19;5.87;;;2.70;;
76125;SDS011;65174;48.138;21.002;2023-06-26T05:19:21;4.80;;;3.03;;
76125;SDS011;65174;48.138;21.002;2023-06-26T05:22:23;4.10;;;2.60;;
76125;SDS011;65174;48.138;21.002;2023-06-26T05:25:25;5.18;;;3.08;;
76125;SDS011;65174;48.138;21.002;2023-06-26T05:28:29;5.07;;;3.20;;
76125;SDS011;65174;48.138;21.002;2023-06-26T05:31:32;3.67;;;2.60;;
76125;SDS011;65174;48.138;21.002;2023-06-26T05:34:36;5.53;;;3.08;;
76125;SDS011;65174;48.138;21.002;2023-06-26T05:37:40;3.67;;;2.75;;
76125;SDS011;65174;48.138;21.002;2023-06-26T05:40:43;4.63;;;2.80;;
76125;SDS011;65174;48.138;21.002;2023-06-26T05:43:45;5.93;;;3.40;;
76125;SDS011;65174;48.138;21.002;2023-06-26T05:46:47;4.63;;;3.10;;
76125;SDS011;65174;48.138;21.002;2023-06-26T05:49:49;5.78;;;3.15;;
76125;SDS011;65174;48.138;21.002;2023-06-26T05:52:51;5.85;;;3.28;;
76125;SDS011;65174;48.138;21.002;2023-06-26T05:55:54;5.43;;;3.92;;
76125;SDS011;65174;48.138;21.002;2023-06-26T05:58:56;4.88;;;2.75;;
76125;SDS011;65174;48.138;21.002;2023-06-26T06:02:00;4.10;;;2.63;;
76125;SDS011;65174;48.138;21.002;2023-06-26T06:05:02;6.50;;;3.15;;
76125;SDS011;65174;48.138;21.002;2023-06-26T06:08:04;3.92;;;3.10;;
76125;SDS011;65174;48.138;21.002;2023-06-26T06:11:06;4.07;;;2.85;;
76125;SDS011;65174;48.138;21.002;2023-06-26T06:14:08;5.00;;;2.80;;
76125;SDS011;65174;48.138;21.002;2023-06-26T06:17:10;5.70;;;2.93;;
76125;SDS011;65174;48.138;21.002;2023-06-26T06:20:12;4.47;;;3.30;;
76125;SDS011;65174;48.138;21.002;2023-06-26T06:23:14;4.43;;;3.10;;
76125;SDS011;65174;48.138;21.002;2023-06-26T06:26:16;4.93;;;3.40;;
76125;SDS011;65174;48.138;21.002;2023-06-26T06:29:18;5.20;;;3.40;;
76125;SDS011;65174;48.138;21.002;2023-06-26T06:32:21;5.83;;;3.50;;
76125;SDS011;65174;48.138;21.002;2023-06-26T06:35:23;4.82;;;3.40;;
76125;SDS011;65174;48.138;21.002;2023-06-26T06:38:30;7.25;;;2.92;;
76125;SDS011;65174;48.138;21.002;2023-06-26T06:41:35;6.43;;;3.15;;
76125;SDS011;65174;48.138;21.002;2023-06-26T06:44:40;4.65;;;2.88;;
76125;SDS011;65174;48.138;21.002;2023-06-26T06:47:42;4.17;;;2.80;;
76125;SDS011;65174;48.138;21.002;2023-06-26T06:50:44;4.43;;;2.97;;
76125;SDS011;65174;48.138;21.002;2023-06-26T06:53:46;4.15;;;3.17;;
76125;SDS011;65174;48.138;21.002;2023-06-26T06:56:48;5.00;;;3.20;;
76125;SDS011;65174;48.138;21.002;2023-06-26T06:59:50;3.88;;;3.13;;
76125;SDS011;65174;48.138;21.002;2023-06-26T07:02:52;5.93;;;3.20;;
76125;SDS011;65174;48.138;21.002;2023-06-26T07:05:55;5.90;;;3.60;;
76125;SDS011;65174;48.138;21.002;2023-06-26T07:08:57;4.30;;;2.80;;
76125;SDS011;65174;48.138;21.002;2023-06-26T07:11:59;6.50;;;3.30;;
76125;SDS011;65174;48.138;21.002;2023-06-26T07:15:02;7.93;;;3.53;;
76125;SDS011;65174;48.138;21.002;2023-06-26T07:18:06;6.67;;;3.20;;
76125;SDS011;65174;48.138;21.002;2023-06-26T07:21:08;8.07;;;3.63;;
76125;SDS011;65174;48.138;21.002;2023-06-26T07:24:10;4.32;;;3.35;;
76125;SDS011;65174;48.138;21.002;2023-06-26T07:27:13;4.72;;;3.15;;
76125;SDS011;65174;48.138;21.002;2023-06-26T07:30:19;3.78;;;2.58;;
76125;SDS011;65174;48.138;21.002;2023-06-26T07:33:21;4.20;;;2.37;;
76125;SDS011;65174;48.138;21.002;2023-06-26T07:36:23;4.95;;;3.40;;
76125;SDS011;65174;48.138;21.002;2023-06-26T07:39:25;6.97;;;2.83;;
76125;SDS011;65174;48.138;21.002;2023-06-26T07:42:27;4.47;;;3.00;;
76125;SDS011;65174;48.138;21.002;2023-06-26T07:45:29;5.38;;;3.00;;
76125;SDS011;65174;48.138;21.002;2023-06-26T07:48:30;6.60;;;3.00;;
76125;SDS011;65174;48.138;21.002;2023-06-26T07:51:32;5.63;;;2.70;;
76125;SDS011;65174;48.138;21.002;2023-06-26T07:54:35;5.07;;;2.85;;
76125;SDS011;65174;48.138;21.002;2023-06-26T07:57:36;4.10;;;2.58;;
76125;SDS011;65174;48.138;21.002;2023-06-26T08:00:40;4.32;;;2.40;;
76125;SDS011;65174;48.138;21.002;2023-06-26T08:03:43;2.80;;;2.50;;
76125;SDS011;65174;48.138;21.002;2023-06-26T08:06:45;4.93;;;2.95;;
76125;SDS011;65174;48.138;21.002;2023-06-26T08:09:49;3.85;;;2.53;;
76125;SDS011;65174;48.138;21.002;2023-06-26T08:12:51;4.70;;;2.90;;
76125;SDS011;65174;48.138;21.002;2023-06-26T08:15:54;5.30;;;2.63;;
76125;SDS011;65174;48.138;21.002;2023-06-26T08:18:56;3.57;;;2.60;;
76125;SDS011;65174;48.138;21.002;2023-06-26T08:21:58;4.63;;;3.08;;
76125;SDS011;65174;48.138;21.002;2023-06-26T08:25:00;5.75;;;2.63;;
76125;SDS011;65174;48.138;21.002;2023-06-26T08:28:02;3.80;;;2.85;;
76125;SDS011;65174;48.138;21.002;2023-06-26T08:31:04;6.80;;;2.55;;
76125;SDS011;65174;48.138;21.002;2023-06-26T08:34:06;3.23;;;2.70;;
76125;SDS011;65174;48.138;21.002;2023-06-26T08:37:09;3.92;;;2.63;;
76125;SDS011;65174;48.138;21.002;2023-06-26T08:40:11;3.60;;;2.60;;
76125;SDS011;65174;48.138;21.002;2023-06-26T08:43:15;3.83;;;2.67;;
76125;SDS011;65174;48.138;21.002;2023-06-26T08:46:18;4.18;;;2.50;;
76125;SDS011;65174;48.138;21.002;2023-06-26T08:49:21;7.37;;;2.87;;
76125;SDS011;65174;48.138;21.002;2023-06-26T08:52:30;3.40;;;2.42;;
76125;SDS011;65174;48.138;21.002;2023-06-26T08:56:35;4.38;;;2.40;;
76125;SDS011;65174;48.138;21.002;2023-06-26T09:00:36;4.05;;;2.53;;
76125;SDS011;65174;48.138;21.002;2023-06-26T09:04:39;3.97;;;2.65;;
76125;SDS011;65174;48.138;21.002;2023-06-26T09:07:50;5.43;;;2.60;;
76125;SDS011;65174;48.138;21.002;2023-06-26T09:10:53;4.63;;;2.60;;
76125;SDS011;65174;48.138;21.002;2023-06-26T09:13:55;3.78;;;2.70;;
76125;SDS011;65174;48.138;21.002;2023-06-26T09:16:57;5.32;;;3.03;;
76125;SDS011;65174;48.138;21.002;2023-06-26T09:19:59;5.30;;;2.95;;
76125;SDS011;65174;48.138;21.002;2023-06-26T09:23:01;4.67;;;2.80;;
76125;SDS011;65174;48.138;21.002;2023-06-26T09:26:05;3.38;;;2.53;;
76125;SDS011;65174;48.138;21.002;2023-06-26T09:29:07;4.13;;;2.90;;
76125;SDS011;65174;48.138;21.002;2023-06-26T09:32:11;3.15;;;2.60;;
76125;SDS011;65174;48.138;21.002;2023-06-26T09:35:15;5.90;;;2.70;;
76125;SDS011;65174;48.138;21.002;2023-06-26T09:38:16;4.60;;;2.13;;
76125;SDS011;65174;48.138;21.002;2023-06-26T09:41:20;4.50;;;2.63;;
76125;SDS011;65174;48.138;21.002;2023-06-26T09:44:22;5.20;;;2.53;;
76125;SDS011;65174;48.138;21.002;2023-06-26T09:47:25;3.97;;;2.63;;
76125;SDS011;65174;48.138;21.002;2023-06-26T09:50:27;3.72;;;2.45;;
76125;SDS011;65174;48.138;21.002;2023-06-26T09:53:29;4.23;;;2.70;;
76125;SDS011;65174;48.138;21.002;2023-06-26T09:56:31;3.97;;;2.70;;
76125;SDS011;65174;48.138;21.002;2023-06-26T09:59:34;3.92;;;2.67;;
76125;SDS011;65174;48.138;21.002;2023-06-26T10:02:36;4.50;;;2.40;;
76125;SDS011;65174;48.138;21.002;2023-06-26T10:05:39;3.13;;;2.47;;
76125;SDS011;65174;48.138;21.002;2023-06-26T10:08:42;4.50;;;2.40;;
76125;SDS011;65174;48.138;21.002;2023-06-26T10:14:46;4.45;;;2.55;;
76125;SDS011;65174;48.138;21.002;2023-06-26T10:17:49;4.43;;;2.60;;
76125;SDS011;65174;48.138;21.002;2023-06-26T10:20:53;3.88;;;2.40;;
76125;SDS011;65174;48.138;21.002;2023-06-26T10:23:58;3.73;;;2.80;;
76125;SDS011;65174;48.138;21.002;2023-06-26T10:27:06;4.68;;;2.53;;
76125;SDS011;65174;48.138;21.002;2023-06-26T10:30:20;3.70;;;2.60;;
76125;SDS011;65174;48.138;21.002;2023-06-26T10:33:26;3.50;;;2.60;;
76125;SDS011;65174;48.138;21.002;2023-06-26T10:36:29;4.00;;;2.67;;
76125;SDS011;65174;48.138;21.002;2023-06-26T10:39:51;2.90;;;2.03;;
76125;SDS011;65174;48.138;21.002;2023-06-26T10:43:14;3.63;;;2.13;;
76125;SDS011;65174;48.138;21.002;2023-06-26T10:46:18;3.60;;;1.95;;
76125;SDS011;65174;48.138;21.002;2023-06-26T10:49:25;2.65;;;2.05;;
76125;SDS011;65174;48.138;21.002;2023-06-26T10:52:29;3.53;;;2.47;;
76125;SDS011;65174;48.138;21.002;2023-06-26T10:55:31;2.57;;;1.83;;
76125;SDS011;65174;48.138;21.002;2023-06-26T10:58:40;2.92;;;2.15;;
76125;SDS011;65174;48.138;21.002;2023-06-26T11:01:46;2.78;;;1.77;;
76125;SDS011;65174;48.138;21.002;2023-06-26T11:04:56;3.25;;;2.20;;
76125;SDS011;65174;48.138;21.002;2023-06-26T11:08:08;3.28;;;2.15;;
76125;SDS011;65174;48.138;21.002;2023-06-26T11:11:13;3.60;;;2.67;;
76125;SDS011;65174;48.138;21.002;2023-06-26T11:14:15;4.55;;;2.25;;
76125;SDS011;65174;48.138;21.002;2023-06-26T11:17:18;3.33;;;2.45;;
76125;SDS011;65174;48.138;21.002;2023-06-26T11:20:20;3.50;;;2.35;;
76125;SDS011;65174;48.138;21.002;2023-06-26T11:23:22;3.20;;;2.40;;
76125;SDS011;65174;48.138;21.002;2023-06-26T11:26:26;2.97;;;2.27;;
76125;SDS011;65174;48.138;21.002;2023-06-26T11:29:28;4.47;;;2.70;;
76125;SDS011;65174;48.138;21.002;2023-06-26T11:32:30;3.40;;;2.70;;
76125;SDS011;65174;48.138;21.002;2023-06-26T11:35:34;4.15;;;2.55;;
76125;SDS011;65174;48.138;21.002;2023-06-26T11:38:37;3.65;;;2.50;;
76125;SDS011;65174;48.138;21.002;2023-06-26T11:41:40;3.60;;;2.27;;
76125;SDS011;65174;48.138;21.002;2023-06-26T11:44:43;3.47;;;2.30;;
76125;SDS011;65174;48.138;21.002;2023-06-26T11:47:45;3.78;;;2.35;;
76125;SDS011;65174;48.138;21.002;2023-06-26T11:50:50;4.28;;;2.03;;
76125;SDS011;65174;48.138;21.002;2023-06-26T11:53:53;2.92;;;2.00;;
76125;SDS011;65174;48.138;21.002;2023-06-26T11:56:56;3.10;;;1.90;;
76125;SDS011;65174;48.138;21.002;2023-06-26T12:00:09;3.05;;;2.00;;
76125;SDS011;65174;48.138;21.002;2023-06-26T12:03:13;4.03;;;2.85;;
76125;SDS011;65174;48.138;21.002;2023-06-26T12:06:15;2.63;;;2.33;;
76125;SDS011;65174;48.138;21.002;2023-06-26T12:09:18;3.92;;;3.00;;
76125;SDS011;65174;48.138;21.002;2023-06-26T12:12:21;3.20;;;2.43;;
76125;SDS011;65174;48.138;21.002;2023-06-26T12:15:23;5.00;;;2.53;;
76125;SDS011;65174;48.138;21.002;2023-06-26T12:18:32;5.03;;;2.92;;
76125;SDS011;65174;48.138;21.002;2023-06-26T12:24:43;5.15;;;2.53;;
76125;SDS011;65174;48.138;21.002;2023-06-26T12:27:46;3.23;;;2.20;;
76125;SDS011;65174;48.138;21.002;2023-06-26T12:31:11;3.72;;;2.33;;
76125;SDS011;65174;48.138;21.002;2023-06-26T12:34:18;4.50;;;2.58;;
76125;SDS011;65174;48.138;21.002;2023-06-26T12:37:21;3.35;;;2.40;;
76125;SDS011;65174;48.138;21.002;2023-06-26T12:40:24;2.85;;;2.35;;
76125;SDS011;65174;48.138;21.002;2023-06-26T12:43:26;2.90;;;1.80;;
76125;SDS011;65174;48.138;21.002;2023-06-26T12:46:34;3.63;;;2.63;;
76125;SDS011;65174;48.138;21.002;2023-06-26T12:49:37;3.63;;;2.13;;
76125;SDS011;65174;48.138;21.002;2023-06-26T12:52:40;3.58;;;2.45;;
76125;SDS011;65174;48.138;21.002;2023-06-26T12:55:42;3.60;;;2.50;;
76125;SDS011;65174;48.138;21.002;2023-06-26T12:58:44;3.87;;;2.13;;
76125;SDS011;65174;48.138;21.002;2023-06-26T13:01:46;3.25;;;2.30;;
76125;SDS011;65174;48.138;21.002;2023-06-26T13:04:49;4.00;;;1.90;;
76125;SDS011;65174;48.138;21.002;2023-06-26T13:07:51;3.40;;;2.30;;
76125;SDS011;65174;48.138;21.002;2023-06-26T13:10:52;5.13;;;2.45;;
76125;SDS011;65174;48.138;21.002;2023-06-26T13:13:55;2.90;;;2.40;;
76125;SDS011;65174;48.138;21.002;2023-06-26T13:17:11;2.40;;;1.92;;
76125;SDS011;65174;48.138;21.002;2023-06-26T13:20:14;6.13;;;2.30;;
76125;SDS011;65174;48.138;21.002;2023-06-26T13:23:16;3.08;;;2.20;;
76125;SDS011;65174;48.138;21.002;2023-06-26T13:26:20;2.33;;;1.92;;
76125;SDS011;65174;48.138;21.002;2023-06-26T13:29:37;3.17;;;1.90;;
76125;SDS011;65174;48.138;21.002;2023-06-26T13:32:39;3.35;;;2.35;;
76125;SDS011;65174;48.138;21.002;2023-06-26T13:35:41;3.25;;;2.30;;
76125;SDS011;65174;48.138;21.002;2023-06-26T13:38:43;3.45;;;1.95;;
76125;SDS011;65174;48.138;21.002;2023-06-26T13:41:46;3.38;;;2.10;;
76125;SDS011;65174;48.138;21.002;2023-06-26T13:44:48;2.57;;;2.10;;
76125;SDS011;65174;48.138;21.002;2023-06-26T13:48:04;2.35;;;2.00;;
76125;SDS011;65174;48.138;21.002;2023-06-26T13:51:07;4.25;;;2.88;;
76125;SDS011;65174;48.138;21.002;2023-06-26T13:54:12;2.42;;;1.80;;
76125;SDS011;65174;48.138;21.002;2023-06-26T13:57:14;3.10;;;2.38;;
76125;SDS011;65174;48.138;21.002;2023-06-26T14:00:16;3.00;;;2.00;;
76125;SDS011;65174;48.138;21.002;2023-06-26T14:03:21;3.55;;;2.35;;
76125;SDS011;65174;48.138;21.002;2023-06-26T14:06:23;2.72;;;2.35;;
76125;SDS011;65174;48.138;21.002;2023-06-26T14:09:25;2.88;;;1.88;;
76125;SDS011;65174;48.138;21.002;2023-06-26T14:12:27;2.75;;;2.22;;
76125;SDS011;65174;48.138;21.002;2023-06-26T14:15:29;2.30;;;1.70;;
76125;SDS011;65174;48.138;21.002;2023-06-26T14:18:32;2.38;;;1.70;;
76125;SDS011;65174;48.138;21.002;2023-06-26T14:21:33;2.85;;;1.95;;
76125;SDS011;65174;48.138;21.002;2023-06-26T14:24:36;2.67;;;1.90;;
76125;SDS011;65174;48.138;21.002;2023-06-26T14:27:38;2.55;;;2.00;;
76125;SDS011;65174;48.138;21.002;2023-06-26T14:30:40;3.23;;;1.63;;
76125;SDS011;65174;48.138;21.002;2023-06-26T14:33:42;1.73;;;1.48;;
76125;SDS011;65174;48.138;21.002;2023-06-26T14:36:44;3.58;;;1.67;;
76125;SDS011;65174;48.138;21.002;2023-06-26T14:39:46;5.18;;;1.75;;
76125;SDS011;65174;48.138;21.002;2023-06-26T14:42:49;2.53;;;1.65;;
76125;SDS011;65174;48.138;21.002;2023-06-26T14:45:51;3.10;;;1.87;;
76125;SDS011;65174;48.138;21.002;2023-06-26T14:48:54;2.90;;;1.77;;
76125;SDS011;65174;48.138;21.002;2023-06-26T14:51:57;2.28;;;1.60;;
76125;SDS011;65174;48.138;21.002;2023-06-26T14:55:00;2.35;;;1.50;;
76125;SDS011;65174;48.138;21.002;2023-06-26T14:58:04;2.22;;;1.85;;
76125;SDS011;65174;48.138;21.002;2023-06-26T15:01:06;2.97;;;1.93;;
76125;SDS011;65174;48.138;21.002;2023-06-26T15:04:09;4.18;;;1.83;;
76125;SDS011;65174;48.138;21.002;2023-06-26T15:07:12;2.35;;;1.58;;
76125;SDS011;65174;48.138;21.002;2023-06-26T15:10:14;3.30;;;1.77;;
76125;SDS011;65174;48.138;21.002;2023-06-26T15:13:16;2.03;;;1.77;;
76125;SDS011;65174;48.138;21.002;2023-06-26T15:16:18;2.80;;;1.90;;
76125;SDS011;65174;48.138;21.002;2023-06-26T15:19:22;2.25;;;1.67;;
76125;SDS011;65174;48.138;21.002;2023-06-26T15:22:24;2.42;;;1.67;;
76125;SDS011;65174;48.138;21.002;2023-06-26T15:25:28;1.55;;;1.25;;
76125;SDS011;65174;48.138;21.002;2023-06-26T15:28:30;1.63;;;1.50;;
76125;SDS011;65174;48.138;21.002;2023-06-26T15:31:32;2.30;;;1.63;;
76125;SDS011;65174;48.138;21.002;2023-06-26T15:34:34;3.50;;;2.00;;
76125;SDS011;65174;48.138;21.002;2023-06-26T15:37:36;1.95;;;1.40;;
76125;SDS011;65174;48.138;21.002;2023-06-26T15:40:38;1.95;;;1.40;;
76125;SDS011;65174;48.138;21.002;2023-06-26T15:43:40;2.83;;;1.90;;
76125;SDS011;65174;48.138;21.002;2023-06-26T15:46:44;1.97;;;1.53;;
76125;SDS011;65174;48.138;21.002;2023-06-26T15:49:46;2.92;;;1.70;;
76125;SDS011;65174;48.138;21.002;2023-06-26T15:52:48;2.28;;;1.88;;
76125;SDS011;65174;48.138;21.002;2023-06-26T15:55:51;1.80;;;1.48;;
76125;SDS011;65174;48.138;21.002;2023-06-26T15:58:52;2.65;;;1.63;;
76125;SDS011;65174;48.138;21.002;2023-06-26T16:01:54;2.17;;;1.87;;
76125;SDS011;65174;48.138;21.002;2023-06-26T16:04:57;2.58;;;1.70;;
76125;SDS011;65174;48.138;21.002;2023-06-26T16:07:59;2.28;;;1.58;;
76125;SDS011;65174;48.138;21.002;2023-06-26T16:11:01;3.33;;;2.10;;
76125;SDS011;65174;48.138;21.002;2023-06-26T16:14:04;3.20;;;2.05;;
76125;SDS011;65174;48.138;21.002;2023-06-26T16:17:06;2.10;;;1.73;;
76125;SDS011;65174;48.138;21.002;2023-06-26T16:20:09;2.25;;;1.52;;
76125;SDS011;65174;48.138;21.002;2023-06-26T16:23:12;2.95;;;2.20;;
76125;SDS011;65174;48.138;21.002;2023-06-26T16:26:14;2.92;;;1.92;;
76125;SDS011;65174;48.138;21.002;2023-06-26T16:29:16;2.67;;;2.08;;
76125;SDS011;65174;48.138;21.002;2023-06-26T16:32:18;2.33;;;1.93;;
76125;SDS011;65174;48.138;21.002;2023-06-26T16:35:20;3.50;;;1.80;;
76125;SDS011;65174;48.138;21.002;2023-06-26T16:38:22;4.15;;;2.03;;
76125;SDS011;65174;48.138;21.002;2023-06-26T16:41:24;2.53;;;1.80;;
76125;SDS011;65174;48.138;21.002;2023-06-26T16:44:25;3.33;;;2.13;;
76125;SDS011;65174;48.138;21.002;2023-06-26T16:47:27;2.60;;;1.57;;
76125;SDS011;65174;48.138;21.002;2023-06-26T16:50:35;2.20;;;1.63;;
76125;SDS011;65174;48.138;21.002;2023-06-26T16:53:37;2.08;;;1.60;;
76125;SDS011;65174;48.138;21.002;2023-06-26T16:56:39;4.28;;;1.98;;
76125;SDS011;65174;48.138;21.002;2023-06-26T16:59:41;2.80;;;2.28;;
76125;SDS011;65174;48.138;21.002;2023-06-26T17:02:44;5.47;;;2.00;;
76125;SDS011;65174;48.138;21.002;2023-06-26T17:05:47;2.10;;;1.70;;
76125;SDS011;65174;48.138;21.002;2023-06-26T17:08:49;2.35;;;1.88;;
76125;SDS011;65174;48.138;21.002;2023-06-26T17:11:51;2.55;;;1.83;;
76125;SDS011;65174;48.138;21.002;2023-06-26T17:14:53;2.83;;;1.88;;
76125;SDS011;65174;48.138;21.002;2023-06-26T17:17:55;2.33;;;1.63;;
76125;SDS011;65174;48.138;21.002;2023-06-26T17:20:57;2.20;;;1.67;;
76125;SDS011;65174;48.138;21.002;2023-06-26T17:23:59;2.97;;;2.30;;
76125;SDS011;65174;48.138;21.002;2023-06-26T17:27:12;3.25;;;2.20;;
76125;SDS011;65174;48.138;21.002;2023-06-26T17:30:22;6.18;;;4.32;;
76125;SDS011;65174;48.138;21.002;2023-06-26T17:33:24;2.70;;;2.13;;
76125;SDS011;65174;48.138;21.002;2023-06-26T17:36:26;2.70;;;2.05;;
76125;SDS011;65174;48.138;21.002;2023-06-26T17:39:28;3.35;;;2.28;;
76125;SDS011;65174;48.138;21.002;2023-06-26T17:42:30;2.72;;;2.10;;
76125;SDS011;65174;48.138;21.002;2023-06-26T17:45:32;3.83;;;2.70;;
76125;SDS011;65174;48.138;21.002;2023-06-26T17:48:35;3.70;;;2.97;;
76125;SDS011;65174;48.138;21.002;2023-06-26T17:51:37;3.70;;;1.95;;
76125;SDS011;65174;48.138;21.002;2023-06-26T17:54:39;3.72;;;2.40;;
76125;SDS011;65174;48.138;21.002;2023-06-26T17:57:42;2.65;;;1.92;;
76125;SDS011;65174;48.138;21.002;2023-06-26T18:00:44;3.85;;;1.85;;
76125;SDS011;65174;48.138;21.002;2023-06-26T18:03:46;2.93;;;2.13;;
76125;SDS011;65174;48.138;21.002;2023-06-26T18:06:49;5.15;;;2.35;;
76125;SDS011;65174;48.138;21.002;2023-06-26T18:09:51;2.55;;;1.98;;
76125;SDS011;65174;48.138;21.002;2023-06-26T18:12:53;3.95;;;2.50;;
76125;SDS011;65174;48.138;21.002;2023-06-26T18:15:57;3.28;;;2.67;;
76125;SDS011;65174;48.138;21.002;2023-06-26T18:19:00;2.90;;;2.27;;
76125;SDS011;65174;48.138;21.002;2023-06-26T18:22:02;2.55;;;2.05;;
76125;SDS011;65174;48.138;21.002;2023-06-26T18:25:04;3.25;;;2.33;;
76125;SDS011;65174;48.138;21.002;2023-06-26T18:28:07;3.28;;;2.00;;
76125;SDS011;65174;48.138;21.002;2023-06-26T18:31:10;4.07;;;2.47;;
76125;SDS011;65174;48.138;21.002;2023-06-26T18:34:12;3.20;;;2.40;;
76125;SDS011;65174;48.138;21.002;2023-06-26T18:37:14;4.68;;;1.92;;
76125;SDS011;65174;48.138;21.002;2023-06-26T18:40:16;2.88;;;2.38;;
76125;SDS011;65174;48.138;21.002;2023-06-26T18:43:19;3.38;;;2.15;;
76125;SDS011;65174;48.138;21.002;2023-06-26T18:46:24;2.83;;;1.98;;
76125;SDS011;65174;48.138;21.002;2023-06-26T18:49:29;2.63;;;2.20;;
76125;SDS011;65174;48.138;21.002;2023-06-26T18:52:31;4.85;;;2.38;;
76125;SDS011;65174;48.138;21.002;2023-06-26T18:55:33;4.05;;;2.70;;
76125;SDS011;65174;48.138;21.002;2023-06-26T18:58:35;2.88;;;2.13;;
76125;SDS011;65174;48.138;21.002;2023-06-26T19:01:38;3.33;;;2.53;;
76125;SDS011;65174;48.138;21.002;2023-06-26T19:04:41;3.00;;;2.40;;
76125;SDS011;65174;48.138;21.002;2023-06-26T19:07:43;3.03;;;2.00;;
76125;SDS011;65174;48.138;21.002;2023-06-26T19:10:45;2.85;;;2.20;;
76125;SDS011;65174;48.138;21.002;2023-06-26T19:13:47;4.45;;;3.00;;
76125;SDS011;65174;48.138;21.002;2023-06-26T19:16:50;4.65;;;2.47;;
76125;SDS011;65174;48.138;21.002;2023-06-26T19:19:52;3.67;;;2.60;;
76125;SDS011;65174;48.138;21.002;2023-06-26T19:22:54;3.58;;;2.17;;
76125;SDS011;65174;48.138;21.002;2023-06-26T19:25:57;4.20;;;2.33;;
76125;SDS011;65174;48.138;21.002;2023-06-26T19:29:03;3.50;;;2.30;;
76125;SDS011;65174;48.138;21.002;2023-06-26T19:32:05;4.03;;;2.30;;
76125;SDS011;65174;48.138;21.002;2023-06-26T19:35:08;4.00;;;2.77;;
76125;SDS011;65174;48.138;21.002;2023-06-26T19:38:10;2.40;;;2.05;;
76125;SDS011;65174;48.138;21.002;2023-06-26T19:41:13;3.38;;;2.38;;
76125;SDS011;65174;48.138;21.002;2023-06-26T19:44:15;2.63;;;1.95;;
76125;SDS011;65174;48.138;21.002;2023-06-26T19:47:17;3.15;;;2.10;;
76125;SDS011;65174;48.138;21.002;2023-06-26T19:50:19;3.97;;;2.20;;
76125;SDS011;65174;48.138;21.002;2023-06-26T19:53:21;3.20;;;2.20;;
76125;SDS011;65174;48.138;21.002;2023-06-26T19:56:23;3.60;;;2.45;;
76125;SDS011;65174;48.138;21.002;2023-06-26T19:59:27;3.42;;;2.50;;
76125;SDS011;65174;48.138;21.002;2023-06-26T20:02:29;4.93;;;2.83;;
76125;SDS011;65174;48.138;21.002;2023-06-26T20:05:31;3.10;;;2.17;;
76125;SDS011;65174;48.138;21.002;2023-06-26T20:08:33;3.10;;;2.00;;
76125;SDS011;65174;48.138;21.002;2023-06-26T20:11:35;3.60;;;2.70;;
76125;SDS011;65174;48.138;21.002;2023-06-26T20:14:37;3.45;;;2.15;;
76125;SDS011;65174;48.138;21.002;2023-06-26T20:17:39;2.80;;;2.10;;
76125;SDS011;65174;48.138;21.002;2023-06-26T20:20:41;3.23;;;2.30;;
76125;SDS011;65174;48.138;21.002;2023-06-26T20:23:43;3.35;;;2.40;;
76125;SDS011;65174;48.138;21.002;2023-06-26T20:26:45;2.92;;;2.30;;
76125;SDS011;65174;48.138;21.002;2023-06-26T20:29:47;3.75;;;2.25;;
76125;SDS011;65174;48.138;21.002;2023-06-26T20:32:49;3.53;;;2.47;;
76125;SDS011;65174;48.138;21.002;2023-06-26T20:35:51;3.20;;;2.07;;
76125;SDS011;65174;48.138;21.002;2023-06-26T20:38:53;3.90;;;2.83;;
76125;SDS011;65174;48.138;21.002;2023-06-26T20:41:55;2.90;;;2.35;;
76125;SDS011;65174;48.138;21.002;2023-06-26T20:44:58;3.83;;;2.10;;
76125;SDS011;65174;48.138;21.002;2023-06-26T20:48:00;3.85;;;2.40;;
76125;SDS011;65174;48.138;21.002;2023-06-26T20:51:03;4.23;;;2.60;;
76125;SDS011;65174;48.138;21.002;2023-06-26T20:54:05;3.45;;;2.30;;
76125;SDS011;65174;48.138;21.002;2023-06-26T20:57:09;3.65;;;2.33;;
76125;SDS011;65174;48.138;21.002;2023-06-26T21:00:11;3.15;;;2.17;;
76125;SDS011;65174;48.138;21.002;2023-06-26T21:03:13;6.95;;;2.47;;
76125;SDS011;65174;48.138;21.002;2023-06-26T21:06:16;3.47;;;2.20;;
76125;SDS011;65174;48.138;21.002;2023-06-26T21:09:18;3.70;;;2.85;;
76125;SDS011;65174;48.138;21.002;2023-06-26T21:12:20;4.60;;;2.33;;
76125;SDS011;65174;48.138;21.002;2023-06-26T21:15:21;3.95;;;2.40;;
76125;SDS011;65174;48.138;21.002;2023-06-26T21:18:23;3.60;;;2.63;;
76125;SDS011;65174;48.138;21.002;2023-06-26T21:21:25;3.57;;;2.00;;
76125;SDS011;65174;48.138;21.002;2023-06-26T21:24:27;6.90;;;2.13;;
76125;SDS011;65174;48.138;21.002;2023-06-26T21:27:29;6.55;;;2.70;;
76125;SDS011;65174;48.138;21.002;2023-06-26T21:30:32;3.40;;;2.45;;
76125;SDS011;65174;48.138;21.002;2023-06-26T21:33:34;3.97;;;2.45;;
76125;SDS011;65174;48.138;21.002;2023-06-26T21:36:36;4.10;;;2.00;;
76125;SDS011;65174;48.138;21.002;2023-06-26T21:39:38;4.07;;;2.55;;
76125;SDS011;65174;48.138;21.002;2023-06-26T21:42:40;3.63;;;2.47;;
76125;SDS011;65174;48.138;21.002;2023-06-26T21:45:42;3.50;;;2.47;;
76125;SDS011;65174;48.138;21.002;2023-06-26T21:48:43;5.47;;;2.78;;
76125;SDS011;65174;48.138;21.002;2023-06-26T21:51:45;3.60;;;2.50;;
76125;SDS011;65174;48.138;21.002;2023-06-26T21:54:47;4.32;;;2.70;;
76125;SDS011;65174;48.138;21.002;2023-06-26T21:57:49;3.53;;;2.50;;
76125;SDS011;65174;48.138;21.002;2023-06-26T22:00:51;3.47;;;2.20;;
76125;SDS011;65174;48.138;21.002;2023-06-26T22:04:02;4.55;;;2.63;;
76125;SDS011;65174;48.138;21.002;2023-06-26T22:07:04;4.20;;;2.60;;
76125;SDS011;65174;48.138;21.002;2023-06-26T22:10:06;3.38;;;2.60;;
76125;SDS011;65174;48.138;21.002;2023-06-26T22:13:09;5.28;;;2.60;;
76125;SDS011;65174;48.138;21.002;2023-06-26T22:16:11;4.13;;;2.28;;